createdAt,value
2022-11-24T00:00:52.804Z,98988.30
2022-11-24T00:03:26.167Z,98987.96
2022-11-24T00:05:52.891Z,98985.30
2022-11-24T00:08:19.599Z,98980.16
2022-11-24T00:10:46.349Z,98976.44
2022-11-24T00:13:13.109Z,98976.39
2022-11-24T00:15:39.871Z,98977.63
2022-11-24T00:18:06.579Z,98985.58
2022-11-24T00:20:33.248Z,98994.70
2022-11-24T00:23:00.947Z,98993.00
2022-11-24T00:25:27.740Z,98994.52
2022-11-24T00:27:54.477Z,98992.48
2022-11-24T00:30:21.198Z,98988.52
2022-11-24T00:32:47.935Z,98989.42
2022-11-24T00:35:14.686Z,98990.55
2022-11-24T00:37:41.436Z,98986.77
2022-11-24T00:40:08.487Z,98987.12
2022-11-24T00:42:35.244Z,98988.70
2022-11-24T00:45:12.972Z,98993.23
2022-11-24T00:47:40.457Z,99007.45
2022-11-24T00:50:07.456Z,99016.23
2022-11-24T00:52:34.186Z,99014.84
2022-11-24T00:55:01.039Z,99021.32
2022-11-24T00:57:27.737Z,99024.80
2022-11-24T00:59:54.427Z,99022.42
2022-11-24T01:02:21.143Z,99016.56
2022-11-24T01:04:47.866Z,99010.54
2022-11-24T01:07:14.769Z,99018.21
2022-11-24T01:09:42.774Z,99022.34
2022-11-24T01:12:09.512Z,99023.87
2022-11-24T01:14:36.627Z,99020.40
2022-11-24T01:17:03.663Z,99004.12
2022-11-24T01:19:30.350Z,98999.09
2022-11-24T01:21:57.022Z,99004.87
2022-11-24T01:24:23.987Z,99001.75
2022-11-24T01:26:50.869Z,99004.66
2022-11-24T01:29:17.649Z,99002.99
2022-11-24T01:31:44.357Z,99003.34
2022-11-24T01:34:12.509Z,99001.16
2022-11-24T01:36:39.307Z,98997.66
2022-11-24T01:39:06.044Z,98994.80
2022-11-24T01:41:34.224Z,98993.23
2022-11-24T01:44:01.018Z,98995.27
2022-11-24T01:46:38.300Z,98998.28
2022-11-24T01:49:07.909Z,98997.20
2022-11-24T01:51:41.400Z,98991.73
2022-11-24T01:54:15.883Z,98997.05
2022-11-24T01:56:46.433Z,98993.17
2022-11-24T01:59:15.745Z,98991.13
2022-11-24T02:01:42.622Z,98994.58
2022-11-24T02:04:16.817Z,98999.22
2022-11-24T02:06:46.357Z,98998.47
2022-11-24T02:09:16.645Z,99001.79
2022-11-24T02:11:44.474Z,99008.75
2022-11-24T02:14:15.555Z,99009.15
2022-11-24T02:16:47.610Z,99014.86
2022-11-24T02:19:23.948Z,99012.56
2022-11-24T02:21:51.276Z,99010.41
2022-11-24T02:24:24.932Z,99009.83
2022-11-24T02:26:51.991Z,99013.16
2022-11-24T02:29:20.352Z,99012.92
2022-11-24T02:31:54.584Z,99007.64
2022-11-24T02:34:21.268Z,99004.36
2022-11-24T02:36:47.983Z,99008.11
2022-11-24T02:39:15.736Z,99012.11
2022-11-24T02:41:49.068Z,99011.68
2022-11-24T02:44:19.554Z,99012.77
2022-11-24T02:46:46.224Z,99014.61
2022-11-24T02:49:12.923Z,99018.37
2022-11-24T02:51:40.263Z,99021.63
2022-11-24T02:54:07.143Z,99026.67
2022-11-24T02:56:33.881Z,99023.30
2022-11-24T02:59:00.569Z,99019.67
2022-11-24T03:01:27.398Z,99013.78
2022-11-24T03:03:54.114Z,99021.95
2022-11-24T03:06:20.801Z,99036.06
2022-11-24T03:08:47.483Z,99042.27
2022-11-24T03:11:14.257Z,99037.74
2022-11-24T03:13:41.016Z,99034.97
2022-11-24T03:16:09.829Z,99032.36
2022-11-24T03:18:36.565Z,99031.17
2022-11-24T03:21:03.584Z,99025.08
2022-11-24T03:23:30.254Z,99024.44
2022-11-24T03:26:10.612Z,99028.81
2022-11-24T03:28:37.520Z,99033.27
2022-11-24T03:31:05.109Z,99039.02
2022-11-24T03:33:31.981Z,99033.90
2022-11-24T03:35:58.658Z,99034.42
2022-11-24T03:38:25.497Z,99034.77
2022-11-24T03:40:52.428Z,99027.17
2022-11-24T03:43:19.135Z,99023.77
2022-11-24T03:45:47.086Z,99023.44
2022-11-24T03:48:15.306Z,99029.44
2022-11-24T03:50:42.814Z,99037.63
2022-11-24T03:53:10.063Z,99044.45
2022-11-24T03:55:36.834Z,99053.76
2022-11-24T03:58:03.501Z,99054.52
2022-11-24T04:00:31.049Z,99057.78
2022-11-24T04:02:57.888Z,99064.52
2022-11-24T04:05:24.711Z,99069.34
2022-11-24T04:07:55.668Z,99069.29
2022-11-24T04:10:23.728Z,99065.94
2022-11-24T04:12:50.427Z,99067.38
2022-11-24T04:15:19.286Z,99076.73
2022-11-24T04:17:47.927Z,99077.72
2022-11-24T04:20:15.963Z,99077.17
2022-11-24T04:22:43.099Z,99079.63
2022-11-24T04:25:10.411Z,99078.17
2022-11-24T04:27:38.051Z,99073.41
2022-11-24T04:30:06.831Z,99076.52
2022-11-24T04:32:33.531Z,99076.05
2022-11-24T04:35:00.248Z,99078.79
2022-11-24T04:37:27.496Z,99081.63
2022-11-24T04:39:54.798Z,99083.38
2022-11-24T04:42:21.627Z,99081.98
2022-11-24T04:44:48.304Z,99083.11
2022-11-24T04:47:18.075Z,99085.23
2022-11-24T04:49:47.113Z,99087.74
2022-11-24T04:52:13.947Z,99093.48
2022-11-24T04:54:40.820Z,99097.31
2022-11-24T04:57:15.190Z,99091.48
2022-11-24T04:59:41.950Z,99094.48
2022-11-24T05:02:09.961Z,99095.23
2022-11-24T05:04:37.268Z,99098.54
2022-11-24T05:07:05.167Z,99103.35
2022-11-24T05:09:54.888Z,99106.10
2022-11-24T05:12:18.651Z,99113.16
2022-11-24T05:14:45.420Z,99122.23
2022-11-24T05:17:12.187Z,99116.27
2022-11-24T05:19:39.008Z,99117.75
2022-11-24T05:22:05.809Z,99116.97
2022-11-24T05:24:32.922Z,99122.23
2022-11-24T05:26:59.896Z,99127.29
2022-11-24T05:29:27.016Z,99135.29
2022-11-24T05:31:53.863Z,99140.98
2022-11-24T05:34:21.153Z,99138.32
2022-11-24T05:36:54.167Z,99134.87
2022-11-24T05:39:21.520Z,99129.16
2022-11-24T05:41:48.311Z,99125.65
2022-11-24T05:44:15.618Z,99131.02
2022-11-24T05:46:42.420Z,99135.31
2022-11-24T05:49:09.714Z,99144.09
2022-11-24T05:51:36.778Z,99147.23
2022-11-24T05:54:03.728Z,99150.87
2022-11-24T05:56:31.056Z,99148.23
2022-11-24T05:58:57.876Z,99155.20
2022-11-24T06:01:24.653Z,99153.23
2022-11-24T06:03:51.743Z,99158.09
2022-11-24T06:06:18.571Z,99161.45
2022-11-24T06:08:45.341Z,99170.23
2022-11-24T06:11:18.147Z,99174.45
2022-11-24T06:13:47.956Z,99181.47
2022-11-24T06:16:15.373Z,99184.84
2022-11-24T06:18:42.422Z,99187.20
2022-11-24T06:21:11.196Z,99189.79
2022-11-24T06:23:39.427Z,99194.77
2022-11-24T06:26:06.563Z,99193.41
2022-11-24T06:28:33.402Z,99186.88
2022-11-24T06:31:04.765Z,99186.63
2022-11-24T06:33:33.801Z,99187.59
2022-11-24T06:36:02.988Z,99198.96
2022-11-24T06:38:30.786Z,99202.59
2022-11-24T06:41:05.946Z,99208.13
2022-11-24T06:43:33.875Z,99206.48
2022-11-24T06:46:01.381Z,99206.94
2022-11-24T06:48:28.452Z,99210.27
2022-11-24T06:51:00.552Z,99214.17
2022-11-24T06:53:31.053Z,99216.83
2022-11-24T06:56:01.638Z,99213.04
2022-11-24T06:58:28.536Z,99213.08
2022-11-24T07:00:55.414Z,99211.87
2022-11-24T07:03:22.570Z,99213.60
2022-11-24T07:05:54.701Z,99216.67
2022-11-24T07:08:21.722Z,99220.70
2022-11-24T07:10:48.563Z,99226.02
2022-11-24T07:13:15.390Z,99222.77
2022-11-24T07:15:42.248Z,99223.84
2022-11-24T07:18:08.998Z,99222.15
2022-11-24T07:20:35.859Z,99221.09
2022-11-24T07:23:02.757Z,99218.08
2022-11-24T07:25:29.567Z,99215.33
2022-11-24T07:27:57.546Z,99214.39
2022-11-24T07:30:26.154Z,99213.55
2022-11-24T07:32:59.402Z,99216.84
2022-11-24T07:35:26.665Z,99218.20
2022-11-24T07:37:57.769Z,99224.63
2022-11-24T07:40:26.231Z,99226.23
2022-11-24T07:42:53.686Z,99230.76
2022-11-24T07:45:20.885Z,99227.66
2022-11-24T07:47:47.768Z,99228.60
2022-11-24T07:50:14.628Z,99232.02
2022-11-24T07:52:41.385Z,99233.22
2022-11-24T07:55:08.917Z,99235.86
2022-11-24T07:57:35.831Z,99237.08
2022-11-24T08:00:05.471Z,99239.92
2022-11-24T08:02:33.362Z,99245.52
2022-11-24T08:05:00.189Z,99248.58
2022-11-24T08:07:27.052Z,99252.98
2022-11-24T08:09:53.921Z,99257.27
2022-11-24T08:12:21.279Z,99256.63
2022-11-24T08:14:49.829Z,99259.19
2022-11-24T08:17:17.757Z,99254.75
2022-11-24T08:19:44.604Z,99254.55
2022-11-24T08:22:11.423Z,99258.92
2022-11-24T08:24:38.402Z,99263.44
2022-11-24T08:27:05.144Z,99265.27
2022-11-24T08:29:32.053Z,99262.29
2022-11-24T08:31:58.942Z,99260.48
2022-11-24T08:34:26.500Z,99265.05
2022-11-24T08:36:53.319Z,99268.14
2022-11-24T08:39:20.242Z,99272.79
2022-11-24T08:41:47.138Z,99277.11
2022-11-24T08:44:15.488Z,99272.73
2022-11-24T08:46:42.695Z,99273.70
2022-11-24T08:49:10.135Z,99273.04
2022-11-24T08:51:37.308Z,99272.23
2022-11-24T08:54:04.133Z,99273.41
2022-11-24T08:56:33.148Z,99276.80
2022-11-24T08:59:00.535Z,99278.47
2022-11-24T09:01:28.886Z,99278.42
2022-11-24T09:03:55.929Z,99278.45
2022-11-24T09:06:26.358Z,99275.48
2022-11-24T09:08:54.160Z,99277.45
2022-11-24T09:11:21.460Z,99274.79
2022-11-24T09:13:48.739Z,99280.61
2022-11-24T09:16:19.150Z,99281.93
2022-11-24T09:18:46.821Z,99278.77
2022-11-24T09:21:15.768Z,99273.46
2022-11-24T09:23:44.354Z,99273.30
2022-11-24T09:26:11.121Z,99275.56
2022-11-24T09:28:38.552Z,99274.77
2022-11-24T09:31:08.112Z,99272.89
2022-11-24T09:33:36.129Z,99277.84
2022-11-24T09:36:03.547Z,99281.89
2022-11-24T09:38:30.668Z,99287.67
2022-11-24T09:41:14.471Z,99284.50
2022-11-24T09:44:05.814Z,99285.77
2022-11-24T09:46:43.605Z,99285.90
2022-11-24T09:49:32.653Z,99285.23
2022-11-24T09:52:04.930Z,99288.01
2022-11-24T09:54:35.249Z,99289.27
2022-11-24T09:57:04.583Z,99289.03
2022-11-24T09:59:31.396Z,99290.33
2022-11-24T10:01:59.787Z,99291.39
2022-11-24T10:04:33.501Z,99288.48
2022-11-24T10:07:26.278Z,99285.33
2022-11-24T10:10:02.010Z,99282.59
2022-11-24T10:13:02.752Z,99281.02
2022-11-24T10:15:47.736Z,99283.02
2022-11-24T10:18:52.184Z,99289.59
2022-11-24T10:21:40.096Z,99289.20
2022-11-24T10:24:34.123Z,99295.13
2022-11-24T10:27:08.689Z,99294.36
2022-11-24T10:29:40.965Z,99288.89
2022-11-24T10:32:18.882Z,99285.75
2022-11-24T10:34:50.097Z,99287.11
2022-11-24T10:37:35.015Z,99286.09
2022-11-24T10:40:56.369Z,99290.08
2022-11-24T10:43:28.858Z,99291.02
2022-11-24T10:46:26.579Z,99291.48
2022-11-24T10:49:00.136Z,99290.98
2022-11-24T10:51:29.742Z,99289.52
2022-11-24T10:54:19.155Z,99291.76
2022-11-24T10:56:49.853Z,99289.47
2022-11-24T10:59:35.771Z,99290.47
2022-11-24T11:02:31.820Z,99289.69
2022-11-24T11:05:24.405Z,99287.67
2022-11-24T11:08:20.143Z,99284.30
2022-11-24T11:10:50.151Z,99287.14
2022-11-24T11:13:35.117Z,99280.68
2022-11-24T11:16:22.699Z,99279.95
2022-11-24T11:18:49.786Z,99278.41
2022-11-24T11:21:36.894Z,99276.33
2022-11-24T11:24:15.080Z,99272.15
2022-11-24T11:26:42.747Z,99272.69
2022-11-24T11:35:12.095Z,99274.35
2022-11-24T11:37:39.199Z,99266.84
2022-11-24T11:40:15.082Z,99266.23
2022-11-24T11:43:02.377Z,99268.12
2022-11-24T11:45:37.888Z,99273.85
2022-11-24T11:48:10.662Z,99272.70
2022-11-24T11:51:21.060Z,99274.31
2022-11-24T11:53:52.544Z,99281.40
2022-11-24T11:56:32.519Z,99284.52
2022-11-24T11:59:20.623Z,99288.66
2022-11-24T12:02:12.219Z,99292.84
2022-11-24T12:04:41.796Z,99293.53
2022-11-24T12:07:27.666Z,99294.30
2022-11-24T12:09:54.457Z,99287.53
2022-11-24T12:12:47.300Z,99288.16
2022-11-24T12:15:34.704Z,99292.76
2022-11-24T12:18:33.507Z,99294.77
2022-11-24T12:21:24.830Z,99297.45
2022-11-24T12:24:23.352Z,99298.42
2022-11-24T12:26:56.326Z,99295.32
2022-11-24T12:29:44.810Z,99291.07
2022-11-24T12:32:30.331Z,99294.61
2022-11-24T12:35:13.911Z,99293.95
2022-11-24T12:37:40.710Z,99294.81
2022-11-24T12:40:15.374Z,99301.16
2022-11-24T12:43:06.771Z,99297.41
2022-11-24T12:45:48.617Z,99297.91
2022-11-24T12:48:28.210Z,99297.23
2022-11-24T12:50:57.315Z,99295.19
2022-11-24T12:53:28.882Z,99298.59
2022-11-24T12:56:06.980Z,99301.52
2022-11-24T12:58:52.683Z,99298.52
2022-11-24T13:01:41.253Z,99301.80
2022-11-24T13:04:20.296Z,99300.45
2022-11-24T13:06:49.447Z,99303.05
2022-11-24T13:09:17.509Z,99306.52
2022-11-24T13:11:49.592Z,99304.30
2022-11-24T13:14:30.851Z,99297.92
2022-11-24T13:19:49.037Z,99292.14
2022-11-24T13:22:25.414Z,99295.64
2022-11-24T13:25:15.785Z,99292.11
2022-11-24T13:27:54.890Z,99289.71
2022-11-24T13:30:33.881Z,99296.61
2022-11-24T13:33:16.943Z,99302.22
2022-11-24T13:36:02.639Z,99303.39
2022-11-24T13:38:53.227Z,99309.28
2022-11-24T13:41:49.119Z,99309.08
2022-11-24T13:44:15.939Z,99307.67
2022-11-24T13:47:33.053Z,99311.08
2022-11-24T13:50:01.396Z,99318.08
2022-11-24T13:52:42.271Z,99313.55
2022-11-24T13:55:11.992Z,99309.36
2022-11-24T13:57:46.122Z,99305.89
2022-11-24T14:00:23.373Z,99308.61
2022-11-24T14:02:53.390Z,99312.16
2022-11-24T14:05:33.166Z,99314.43
2022-11-24T14:08:00.152Z,99318.54
2022-11-24T14:10:40.869Z,99324.20
2022-11-24T14:13:20.546Z,99327.84
2022-11-24T14:16:02.531Z,99330.54
2022-11-24T14:18:30.960Z,99335.59
2022-11-24T14:21:00.966Z,99342.79
2022-11-24T14:23:27.824Z,99344.33
2022-11-24T14:25:54.681Z,99346.65
2022-11-24T14:28:27.306Z,99348.60
2022-11-24T14:31:19.577Z,99351.00
2022-11-24T14:33:46.755Z,99350.25
2022-11-24T14:36:17.610Z,99347.50
2022-11-24T14:38:44.624Z,99345.80
2022-11-24T14:41:25.708Z,99346.81
2022-11-24T14:44:06.982Z,99352.45
2022-11-24T14:46:34.567Z,99356.44
2022-11-24T14:49:02.158Z,99363.14
2022-11-24T14:51:31.974Z,99366.64
2022-11-24T14:54:02.588Z,99370.14
2022-11-24T14:56:34.855Z,99371.30
2022-11-24T14:59:02.723Z,99376.11
2022-11-24T15:01:34.316Z,99380.12
2022-11-24T15:04:32.333Z,99378.77
2022-11-24T15:07:18.851Z,99379.02
2022-11-24T15:09:51.364Z,99388.16
2022-11-24T15:12:30.001Z,99391.79
2022-11-24T15:15:13.738Z,99399.07
2022-11-24T15:17:50.269Z,99409.77
2022-11-24T15:20:26.146Z,99413.48
2022-11-24T15:23:24.297Z,99412.05
2022-11-24T15:25:52.887Z,99410.98
2022-11-24T15:28:25.113Z,99413.89
2022-11-24T15:31:12.510Z,99411.67
2022-11-24T15:33:41.017Z,99414.23
2022-11-24T15:36:08.157Z,99414.59
2022-11-24T15:38:34.927Z,99423.01
2022-11-24T15:41:05.053Z,99432.27
2022-11-24T15:43:34.582Z,99435.91
2022-11-24T15:46:03.254Z,99437.73
2022-11-24T15:48:30.811Z,99444.27
2022-11-24T15:50:58.859Z,99444.71
2022-11-24T15:53:32.056Z,99439.83
2022-11-24T15:56:01.058Z,99435.95
2022-11-24T15:58:27.834Z,99438.77
2022-11-24T16:00:54.768Z,99442.50
2022-11-24T16:03:46.396Z,99442.96
2022-11-24T16:06:16.746Z,99441.59
2022-11-24T16:08:46.384Z,99448.43
2022-11-24T16:11:13.252Z,99447.87
2022-11-24T16:13:40.137Z,99444.25
2022-11-24T16:16:07.159Z,99443.58
2022-11-24T16:18:38.801Z,99445.77
2022-11-24T16:21:10.196Z,99444.20
2022-11-24T16:23:37.577Z,99439.52
2022-11-24T16:26:05.417Z,99438.40
2022-11-24T16:28:32.558Z,99437.30
2022-11-24T16:30:59.347Z,99437.61
2022-11-24T16:33:28.394Z,99434.95
2022-11-24T16:35:55.209Z,99433.48
2022-11-24T16:38:22.172Z,99431.50
2022-11-24T16:40:53.052Z,99433.15
2022-11-24T16:43:19.842Z,99436.94
2022-11-24T16:45:59.519Z,99439.59
2022-11-24T16:48:26.406Z,99450.06
2022-11-24T16:50:53.407Z,99457.98
2022-11-24T16:53:20.092Z,99466.35
2022-11-24T16:55:56.558Z,99469.56
2022-11-24T16:58:23.538Z,99470.20
2022-11-24T17:00:50.596Z,99474.83
2022-11-24T17:03:17.475Z,99475.30
2022-11-24T17:05:44.216Z,99473.92
2022-11-24T17:08:10.981Z,99476.64
2022-11-24T17:10:38.266Z,99477.80
2022-11-24T17:13:05.057Z,99475.17
2022-11-24T17:15:35.477Z,99477.65
2022-11-24T17:20:51.944Z,99482.66
2022-11-24T17:23:19.137Z,99481.72
2022-11-24T17:25:47.765Z,99484.48
2022-11-24T17:28:15.192Z,99478.68
2022-11-24T17:30:42.079Z,99483.67
2022-11-24T17:33:09.219Z,99485.73
2022-11-24T17:35:36.478Z,99493.48
2022-11-24T17:38:03.819Z,99495.50
2022-11-24T17:40:30.788Z,99497.23
2022-11-24T17:43:01.278Z,99502.37
2022-11-24T17:45:29.914Z,99509.90
2022-11-24T17:48:00.375Z,99512.59
2022-11-24T17:50:27.285Z,99511.60
2022-11-24T17:52:54.290Z,99508.15
2022-11-24T17:55:21.207Z,99508.93
2022-11-24T17:57:48.000Z,99509.42
2022-11-24T18:00:15.698Z,99513.20
2022-11-24T18:02:42.624Z,99507.99
2022-11-24T18:05:09.566Z,99504.70
2022-11-24T18:07:36.548Z,99511.56
2022-11-24T18:10:03.947Z,99515.70
2022-11-24T18:12:31.825Z,99517.75
2022-11-24T18:14:58.702Z,99518.73
2022-11-24T18:17:25.472Z,99516.65
2022-11-24T18:19:52.283Z,99524.48
2022-11-24T18:22:21.090Z,99520.17
2022-11-24T18:24:58.325Z,99522.20
2022-11-24T18:27:25.115Z,99521.95
2022-11-24T18:29:56.069Z,99523.40
2022-11-24T18:32:23.121Z,99522.84
2022-11-24T18:34:50.656Z,99527.62
2022-11-24T18:37:17.519Z,99530.52
2022-11-24T18:39:44.310Z,99532.38
2022-11-24T18:42:11.239Z,99535.77
2022-11-24T18:44:37.998Z,99534.74
2022-11-24T18:47:04.997Z,99536.94
2022-11-24T18:49:31.860Z,99535.91
2022-11-24T18:51:58.977Z,99542.96
2022-11-24T18:54:28.517Z,99544.01
2022-11-24T18:56:58.975Z,99541.58
2022-11-24T18:59:29.847Z,99549.27
2022-11-24T19:01:57.565Z,99549.94
2022-11-24T19:04:25.698Z,99549.58
2022-11-24T19:06:52.611Z,99548.52
2022-11-24T19:09:22.086Z,99546.80
2022-11-24T19:11:48.897Z,99545.22
2022-11-24T19:14:17.543Z,99546.06
2022-11-24T19:16:47.073Z,99545.88
2022-11-24T19:19:14.211Z,99545.52
2022-11-24T19:21:41.311Z,99548.63
2022-11-24T19:24:09.501Z,99549.20
2022-11-24T19:26:37.329Z,99545.80
2022-11-24T19:29:05.872Z,99544.48
2022-11-24T19:31:34.269Z,99549.97
2022-11-24T19:34:02.520Z,99559.89
2022-11-24T19:36:35.265Z,99563.83
2022-11-24T19:39:04.221Z,99564.13
2022-11-24T19:41:32.713Z,99565.66
2022-11-24T19:44:02.785Z,99563.64
2022-11-24T19:46:29.906Z,99560.04
2022-11-24T19:49:01.351Z,99563.82
2022-11-24T19:51:31.145Z,99567.38
2022-11-24T19:53:58.305Z,99567.88
2022-11-24T19:56:27.787Z,99562.21
2022-11-24T19:58:54.935Z,99571.98
2022-11-24T20:01:24.878Z,99572.79
2022-11-24T20:04:00.192Z,99575.67
2022-11-24T20:06:33.176Z,99563.48
2022-11-24T20:09:01.156Z,99574.40
2022-11-24T20:11:28.691Z,99576.49
2022-11-24T20:13:57.362Z,99576.59
2022-11-24T20:16:28.801Z,99575.20
2022-11-24T20:18:58.669Z,99570.39
2022-11-24T20:21:28.247Z,99571.58
2022-11-24T20:24:02.516Z,99571.61
2022-11-24T20:26:32.723Z,99577.80
2022-11-24T20:29:00.187Z,99576.61
2022-11-24T20:31:31.635Z,99579.65
2022-11-24T20:34:00.728Z,99582.36
2022-11-24T20:36:30.002Z,99588.85
2022-11-24T20:38:59.572Z,99589.37
2022-11-24T20:41:29.357Z,99595.57
2022-11-24T20:43:59.304Z,99594.66
2022-11-24T20:46:31.753Z,99593.27
2022-11-24T20:48:59.466Z,99595.31
2022-11-24T20:51:28.389Z,99593.38
2022-11-24T20:53:57.878Z,99594.79
2022-11-24T20:56:28.557Z,99595.12
2022-11-24T20:58:55.776Z,99600.44
2022-11-24T21:01:25.463Z,99601.75
2022-11-24T21:03:55.262Z,99602.21
2022-11-24T21:06:22.732Z,99603.35
2022-11-24T21:08:50.513Z,99610.18
2022-11-24T21:11:18.391Z,99613.41
2022-11-24T21:13:48.111Z,99613.23
2022-11-24T21:16:23.820Z,99611.95
2022-11-24T21:18:54.277Z,99612.42
2022-11-24T21:21:22.636Z,99612.09
2022-11-24T21:23:49.859Z,99615.02
2022-11-24T21:26:17.627Z,99612.96
2022-11-24T21:28:46.809Z,99615.52
2022-11-24T21:31:16.634Z,99615.14
2022-11-24T21:33:53.979Z,99621.34
2022-11-24T21:36:23.886Z,99615.59
2022-11-24T21:38:53.054Z,99618.14
2022-11-24T21:41:21.356Z,99614.14
2022-11-24T21:43:49.503Z,99619.45
2022-11-24T21:46:16.568Z,99615.02
2022-11-24T21:48:43.974Z,99617.23
2022-11-24T21:51:17.620Z,99616.73
2022-11-24T21:53:45.387Z,99616.90
2022-11-24T21:56:15.126Z,99617.12
2022-11-24T21:58:56.722Z,99614.33
2022-11-24T22:01:29.231Z,99614.53
2022-11-24T22:03:56.256Z,99612.82
2022-11-24T22:06:23.590Z,99609.89
2022-11-24T22:08:50.437Z,99610.17
2022-11-24T22:11:23.260Z,99622.64
2022-11-24T22:13:50.900Z,99620.22
2022-11-24T22:16:20.580Z,99619.73
2022-11-24T22:18:47.798Z,99623.04
2022-11-24T22:21:17.167Z,99625.27
2022-11-24T22:23:44.035Z,99628.85
2022-11-24T22:26:19.280Z,99625.63
2022-11-24T22:28:46.718Z,99637.58
2022-11-24T22:31:19.194Z,99635.84
2022-11-24T22:33:46.940Z,99630.14
2022-11-24T22:36:14.756Z,99624.80
2022-11-24T22:38:42.863Z,99626.35
2022-11-24T22:41:12.883Z,99627.91
2022-11-24T22:43:41.222Z,99622.54
2022-11-24T22:46:17.348Z,99624.86
2022-11-24T22:48:46.139Z,99625.73
2022-11-24T22:51:15.651Z,99626.60
2022-11-24T22:53:47.984Z,99629.85
2022-11-24T22:56:16.005Z,99635.00
2022-11-24T22:58:42.773Z,99631.59
2022-11-24T23:01:15.113Z,99636.08
2022-11-24T23:03:42.581Z,99634.56
2022-11-24T23:06:16.079Z,99632.80
2022-11-24T23:08:43.350Z,99634.00
2022-11-24T23:11:13.136Z,99629.02
2022-11-24T23:13:40.147Z,99630.24
2022-11-24T23:16:10.686Z,99634.21
2022-11-24T23:18:38.198Z,99632.20
2022-11-24T23:21:06.012Z,99633.43
2022-11-24T23:23:33.793Z,99633.25
2022-11-24T23:26:02.733Z,99633.87
2022-11-24T23:28:30.111Z,99633.33
2022-11-24T23:31:05.318Z,99631.20
2022-11-24T23:33:32.689Z,99632.92
2022-11-24T23:36:01.666Z,99634.16
2022-11-24T23:38:31.855Z,99638.91
2022-11-24T23:41:00.226Z,99635.66
2022-11-24T23:43:26.936Z,99630.09
2022-11-24T23:45:53.755Z,99644.16
2022-11-24T23:48:20.581Z,99651.22
2022-11-24T23:50:47.303Z,99645.40
2022-11-24T23:53:14.078Z,99647.12
2022-11-24T23:55:40.803Z,99649.71
2022-11-24T23:58:07.510Z,99657.29
